Terminal Aerodrome Forecast
Issued by NWS

Home | Current Version | Previous Version | Text Only | Print | Product List | Glossary On
Versions: 1 2 3 4 5 6 7 8 9 10 11 12 13 14 15 16
000
FTUS41 KGYX 041730
TAFLEB
TAF
KLEB 041730Z 0418/0518 21010G18KT P6SM SCT100
     FM042300 21010KT P6SM SCT050 OVC100
     FM051200 32009KT P6SM SCT060=

USA.gov is the U.S. government's official web portal to all federal, state and local government web resources and services.